sensor_id;sensor_type;location;lat;lon;timestamp;P1;durP1;ratioP1;P2;durP2;ratioP2
4756;SDS011;2392;52.578;13.426;2022-10-22T00:00:57;20.93;;;16.57;;
4756;SDS011;2392;52.578;13.426;2022-10-22T00:03:23;20.03;;;15.13;;
4756;SDS011;2392;52.578;13.426;2022-10-22T00:05:50;25.57;;;17.57;;
4756;SDS011;2392;52.578;13.426;2022-10-22T00:08:17;23.60;;;16.73;;
4756;SDS011;2392;52.578;13.426;2022-10-22T00:10:45;25.40;;;17.10;;
4756;SDS011;2392;52.578;13.426;2022-10-22T00:13:12;22.30;;;16.67;;
4756;SDS011;2392;52.578;13.426;2022-10-22T00:15:39;21.43;;;16.80;;
4756;SDS011;2392;52.578;13.426;2022-10-22T00:18:06;19.00;;;14.10;;
4756;SDS011;2392;52.578;13.426;2022-10-22T00:20:33;16.37;;;13.43;;
4756;SDS011;2392;52.578;13.426;2022-10-22T00:22:59;18.60;;;16.57;;
4756;SDS011;2392;52.578;13.426;2022-10-22T00:25:27;17.10;;;14.80;;
4756;SDS011;2392;52.578;13.426;2022-10-22T00:27:55;18.53;;;14.70;;
4756;SDS011;2392;52.578;13.426;2022-10-22T00:30:22;17.80;;;14.37;;
4756;SDS011;2392;52.578;13.426;2022-10-22T00:32:48;19.23;;;15.10;;
4756;SDS011;2392;52.578;13.426;2022-10-22T00:35:15;15.83;;;13.60;;
4756;SDS011;2392;52.578;13.426;2022-10-22T00:37:42;17.67;;;14.93;;
4756;SDS011;2392;52.578;13.426;2022-10-22T00:40:09;22.00;;;15.10;;
4756;SDS011;2392;52.578;13.426;2022-10-22T00:42:37;18.40;;;14.90;;
4756;SDS011;2392;52.578;13.426;2022-10-22T00:45:14;19.93;;;15.60;;
4756;SDS011;2392;52.578;13.426;2022-10-22T00:47:45;14.53;;;13.03;;
4756;SDS011;2392;52.578;13.426;2022-10-22T00:50:20;17.00;;;14.20;;
4756;SDS011;2392;52.578;13.426;2022-10-22T00:52:49;17.07;;;14.03;;
4756;SDS011;2392;52.578;13.426;2022-10-22T00:55:16;16.03;;;14.50;;
4756;SDS011;2392;52.578;13.426;2022-10-22T00:57:44;19.30;;;14.93;;
4756;SDS011;2392;52.578;13.426;2022-10-22T01:00:12;24.13;;;14.83;;
4756;SDS011;2392;52.578;13.426;2022-10-22T01:02:40;16.23;;;14.07;;
4756;SDS011;2392;52.578;13.426;2022-10-22T01:05:08;16.83;;;14.97;;
4756;SDS011;2392;52.578;13.426;2022-10-22T01:07:36;22.20;;;15.53;;
4756;SDS011;2392;52.578;13.426;2022-10-22T01:10:07;18.20;;;14.63;;
4756;SDS011;2392;52.578;13.426;2022-10-22T01:12:42;23.93;;;16.43;;
4756;SDS011;2392;52.578;13.426;2022-10-22T01:15:19;21.67;;;14.93;;
4756;SDS011;2392;52.578;13.426;2022-10-22T01:17:55;22.63;;;15.63;;
4756;SDS011;2392;52.578;13.426;2022-10-22T01:20:31;16.13;;;13.60;;
4756;SDS011;2392;52.578;13.426;2022-10-22T01:23:15;20.70;;;15.80;;
4756;SDS011;2392;52.578;13.426;2022-10-22T01:26:01;19.10;;;14.20;;
4756;SDS011;2392;52.578;13.426;2022-10-22T01:28:44;18.53;;;15.37;;
4756;SDS011;2392;52.578;13.426;2022-10-22T01:31:22;19.73;;;14.83;;
4756;SDS011;2392;52.578;13.426;2022-10-22T01:33:52;17.90;;;15.30;;
4756;SDS011;2392;52.578;13.426;2022-10-22T01:36:20;18.83;;;14.60;;
4756;SDS011;2392;52.578;13.426;2022-10-22T01:38:47;17.70;;;15.20;;
4756;SDS011;2392;52.578;13.426;2022-10-22T01:41:15;19.07;;;14.97;;
4756;SDS011;2392;52.578;13.426;2022-10-22T01:43:42;16.87;;;14.60;;
4756;SDS011;2392;52.578;13.426;2022-10-22T01:46:11;18.37;;;15.00;;
4756;SDS011;2392;52.578;13.426;2022-10-22T01:48:42;19.50;;;15.87;;
4756;SDS011;2392;52.578;13.426;2022-10-22T01:51:21;15.43;;;13.30;;
4756;SDS011;2392;52.578;13.426;2022-10-22T01:54:05;16.23;;;13.37;;
4756;SDS011;2392;52.578;13.426;2022-10-22T01:56:44;17.47;;;14.20;;
4756;SDS011;2392;52.578;13.426;2022-10-22T01:59:23;22.10;;;16.13;;
4756;SDS011;2392;52.578;13.426;2022-10-22T02:02:02;17.17;;;14.63;;
4756;SDS011;2392;52.578;13.426;2022-10-22T02:04:38;19.67;;;15.00;;
4756;SDS011;2392;52.578;13.426;2022-10-22T02:07:09;21.83;;;16.40;;
4756;SDS011;2392;52.578;13.426;2022-10-22T02:09:39;20.17;;;14.53;;
4756;SDS011;2392;52.578;13.426;2022-10-22T02:12:08;21.43;;;15.57;;
4756;SDS011;2392;52.578;13.426;2022-10-22T02:14:38;20.50;;;16.17;;
4756;SDS011;2392;52.578;13.426;2022-10-22T02:17:09;19.00;;;15.80;;
4756;SDS011;2392;52.578;13.426;2022-10-22T02:19:40;22.20;;;15.83;;
4756;SDS011;2392;52.578;13.426;2022-10-22T02:22:11;22.50;;;15.63;;
4756;SDS011;2392;52.578;13.426;2022-10-22T02:24:38;20.80;;;15.30;;
4756;SDS011;2392;52.578;13.426;2022-10-22T02:27:06;17.93;;;15.67;;
4756;SDS011;2392;52.578;13.426;2022-10-22T02:29:40;19.70;;;16.43;;
4756;SDS011;2392;52.578;13.426;2022-10-22T02:32:14;16.50;;;13.37;;
4756;SDS011;2392;52.578;13.426;2022-10-22T02:34:45;17.73;;;14.83;;
4756;SDS011;2392;52.578;13.426;2022-10-22T02:37:14;18.47;;;15.57;;
4756;SDS011;2392;52.578;13.426;2022-10-22T02:39:42;18.37;;;16.23;;
4756;SDS011;2392;52.578;13.426;2022-10-22T02:42:10;19.50;;;15.53;;
4756;SDS011;2392;52.578;13.426;2022-10-22T02:44:38;19.17;;;15.90;;
4756;SDS011;2392;52.578;13.426;2022-10-22T02:47:05;20.80;;;16.40;;
4756;SDS011;2392;52.578;13.426;2022-10-22T02:49:32;19.40;;;15.53;;
4756;SDS011;2392;52.578;13.426;2022-10-22T02:51:59;21.43;;;16.67;;
4756;SDS011;2392;52.578;13.426;2022-10-22T02:54:26;19.57;;;14.30;;
4756;SDS011;2392;52.578;13.426;2022-10-22T02:56:53;19.60;;;15.53;;
4756;SDS011;2392;52.578;13.426;2022-10-22T02:59:19;20.00;;;15.23;;
4756;SDS011;2392;52.578;13.426;2022-10-22T03:01:48;19.37;;;15.00;;
4756;SDS011;2392;52.578;13.426;2022-10-22T03:04:14;17.47;;;15.23;;
4756;SDS011;2392;52.578;13.426;2022-10-22T03:06:41;17.30;;;14.87;;
4756;SDS011;2392;52.578;13.426;2022-10-22T03:09:08;18.90;;;14.10;;
4756;SDS011;2392;52.578;13.426;2022-10-22T03:11:36;18.67;;;14.73;;
4756;SDS011;2392;52.578;13.426;2022-10-22T03:14:02;17.60;;;14.23;;
4756;SDS011;2392;52.578;13.426;2022-10-22T03:16:29;21.13;;;15.03;;
4756;SDS011;2392;52.578;13.426;2022-10-22T03:18:57;18.87;;;14.47;;
4756;SDS011;2392;52.578;13.426;2022-10-22T03:21:27;17.23;;;14.70;;
4756;SDS011;2392;52.578;13.426;2022-10-22T03:23:57;17.97;;;13.77;;
4756;SDS011;2392;52.578;13.426;2022-10-22T03:26:25;18.70;;;14.43;;
4756;SDS011;2392;52.578;13.426;2022-10-22T03:28:52;17.83;;;14.40;;
4756;SDS011;2392;52.578;13.426;2022-10-22T03:31:19;17.43;;;12.90;;
4756;SDS011;2392;52.578;13.426;2022-10-22T03:33:46;15.47;;;13.47;;
4756;SDS011;2392;52.578;13.426;2022-10-22T03:36:14;16.93;;;13.93;;
4756;SDS011;2392;52.578;13.426;2022-10-22T03:38:41;16.10;;;13.10;;
4756;SDS011;2392;52.578;13.426;2022-10-22T03:41:08;21.10;;;13.40;;
4756;SDS011;2392;52.578;13.426;2022-10-22T03:43:35;17.17;;;14.47;;
4756;SDS011;2392;52.578;13.426;2022-10-22T03:46:04;16.43;;;14.00;;
4756;SDS011;2392;52.578;13.426;2022-10-22T03:48:31;18.03;;;13.57;;
4756;SDS011;2392;52.578;13.426;2022-10-22T03:50:58;14.57;;;12.90;;
4756;SDS011;2392;52.578;13.426;2022-10-22T03:53:26;16.20;;;12.60;;
4756;SDS011;2392;52.578;13.426;2022-10-22T03:55:53;15.27;;;12.97;;
4756;SDS011;2392;52.578;13.426;2022-10-22T03:58:20;17.43;;;13.67;;
4756;SDS011;2392;52.578;13.426;2022-10-22T04:00:47;19.00;;;13.80;;
4756;SDS011;2392;52.578;13.426;2022-10-22T04:03:14;17.13;;;12.77;;
4756;SDS011;2392;52.578;13.426;2022-10-22T04:05:40;15.03;;;13.13;;
4756;SDS011;2392;52.578;13.426;2022-10-22T04:08:07;18.07;;;12.50;;
4756;SDS011;2392;52.578;13.426;2022-10-22T04:10:35;18.00;;;13.40;;
4756;SDS011;2392;52.578;13.426;2022-10-22T04:13:02;15.43;;;13.73;;
4756;SDS011;2392;52.578;13.426;2022-10-22T04:15:29;15.03;;;12.30;;
4756;SDS011;2392;52.578;13.426;2022-10-22T04:17:56;15.93;;;13.47;;
4756;SDS011;2392;52.578;13.426;2022-10-22T04:20:23;16.17;;;13.33;;
4756;SDS011;2392;52.578;13.426;2022-10-22T04:22:50;17.90;;;13.63;;
4756;SDS011;2392;52.578;13.426;2022-10-22T04:25:17;15.00;;;12.13;;
4756;SDS011;2392;52.578;13.426;2022-10-22T04:27:45;13.43;;;11.20;;
4756;SDS011;2392;52.578;13.426;2022-10-22T04:30:12;15.73;;;12.73;;
4756;SDS011;2392;52.578;13.426;2022-10-22T04:32:39;13.00;;;11.60;;
4756;SDS011;2392;52.578;13.426;2022-10-22T04:35:06;22.07;;;13.23;;
4756;SDS011;2392;52.578;13.426;2022-10-22T04:37:33;15.17;;;12.87;;
4756;SDS011;2392;52.578;13.426;2022-10-22T04:40:00;19.60;;;13.30;;
4756;SDS011;2392;52.578;13.426;2022-10-22T04:42:27;18.17;;;13.97;;
4756;SDS011;2392;52.578;13.426;2022-10-22T04:44:55;16.27;;;13.20;;
4756;SDS011;2392;52.578;13.426;2022-10-22T04:47:22;15.27;;;13.27;;
4756;SDS011;2392;52.578;13.426;2022-10-22T04:49:49;14.67;;;13.07;;
4756;SDS011;2392;52.578;13.426;2022-10-22T04:52:16;17.67;;;13.53;;
4756;SDS011;2392;52.578;13.426;2022-10-22T04:54:42;18.80;;;13.40;;
4756;SDS011;2392;52.578;13.426;2022-10-22T04:57:09;16.87;;;13.80;;
4756;SDS011;2392;52.578;13.426;2022-10-22T04:59:36;14.33;;;12.80;;
4756;SDS011;2392;52.578;13.426;2022-10-22T05:02:05;21.60;;;14.20;;
4756;SDS011;2392;52.578;13.426;2022-10-22T05:04:31;17.23;;;13.33;;
4756;SDS011;2392;52.578;13.426;2022-10-22T05:06:58;25.33;;;15.60;;
4756;SDS011;2392;52.578;13.426;2022-10-22T05:09:25;21.10;;;14.40;;
4756;SDS011;2392;52.578;13.426;2022-10-22T05:11:52;21.57;;;13.77;;
4756;SDS011;2392;52.578;13.426;2022-10-22T05:14:19;19.10;;;14.47;;
4756;SDS011;2392;52.578;13.426;2022-10-22T05:16:47;18.80;;;13.53;;
4756;SDS011;2392;52.578;13.426;2022-10-22T05:19:17;15.13;;;12.50;;
4756;SDS011;2392;52.578;13.426;2022-10-22T05:21:45;14.87;;;12.63;;
4756;SDS011;2392;52.578;13.426;2022-10-22T05:24:12;15.80;;;12.33;;
4756;SDS011;2392;52.578;13.426;2022-10-22T05:26:39;13.10;;;11.70;;
4756;SDS011;2392;52.578;13.426;2022-10-22T05:29:06;15.87;;;11.60;;
4756;SDS011;2392;52.578;13.426;2022-10-22T05:31:33;16.07;;;13.47;;
4756;SDS011;2392;52.578;13.426;2022-10-22T05:34:00;17.13;;;13.23;;
4756;SDS011;2392;52.578;13.426;2022-10-22T05:36:28;17.77;;;13.87;;
4756;SDS011;2392;52.578;13.426;2022-10-22T05:38:55;16.40;;;12.63;;
4756;SDS011;2392;52.578;13.426;2022-10-22T05:41:23;17.87;;;13.00;;
4756;SDS011;2392;52.578;13.426;2022-10-22T05:43:53;15.37;;;12.83;;
4756;SDS011;2392;52.578;13.426;2022-10-22T05:46:20;12.37;;;11.03;;
4756;SDS011;2392;52.578;13.426;2022-10-22T05:48:48;13.20;;;11.80;;
4756;SDS011;2392;52.578;13.426;2022-10-22T05:51:16;14.07;;;10.97;;
4756;SDS011;2392;52.578;13.426;2022-10-22T05:53:45;14.90;;;11.37;;
4756;SDS011;2392;52.578;13.426;2022-10-22T05:56:16;13.70;;;11.53;;
4756;SDS011;2392;52.578;13.426;2022-10-22T05:58:43;13.70;;;10.87;;
4756;SDS011;2392;52.578;13.426;2022-10-22T06:01:11;13.90;;;11.70;;
4756;SDS011;2392;52.578;13.426;2022-10-22T06:03:39;15.13;;;12.47;;
4756;SDS011;2392;52.578;13.426;2022-10-22T06:06:11;15.53;;;13.03;;
4756;SDS011;2392;52.578;13.426;2022-10-22T06:08:46;14.70;;;12.50;;
4756;SDS011;2392;52.578;13.426;2022-10-22T06:11:13;17.30;;;12.07;;
4756;SDS011;2392;52.578;13.426;2022-10-22T06:13:42;19.30;;;13.30;;
4756;SDS011;2392;52.578;13.426;2022-10-22T06:16:09;15.47;;;11.67;;
4756;SDS011;2392;52.578;13.426;2022-10-22T06:18:35;12.77;;;11.37;;
4756;SDS011;2392;52.578;13.426;2022-10-22T06:21:03;16.37;;;13.27;;
4756;SDS011;2392;52.578;13.426;2022-10-22T06:23:31;14.33;;;11.90;;
4756;SDS011;2392;52.578;13.426;2022-10-22T06:25:59;16.63;;;12.63;;
4756;SDS011;2392;52.578;13.426;2022-10-22T06:28:26;46.73;;;29.60;;
4756;SDS011;2392;52.578;13.426;2022-10-22T06:30:55;16.17;;;13.70;;
4756;SDS011;2392;52.578;13.426;2022-10-22T06:33:22;15.67;;;13.20;;
4756;SDS011;2392;52.578;13.426;2022-10-22T06:35:49;19.67;;;14.30;;
4756;SDS011;2392;52.578;13.426;2022-10-22T06:38:16;18.70;;;14.70;;
4756;SDS011;2392;52.578;13.426;2022-10-22T06:40:43;16.90;;;13.67;;
4756;SDS011;2392;52.578;13.426;2022-10-22T06:43:12;19.13;;;14.40;;
4756;SDS011;2392;52.578;13.426;2022-10-22T06:45:39;18.40;;;14.73;;
4756;SDS011;2392;52.578;13.426;2022-10-22T06:48:06;20.43;;;13.00;;
4756;SDS011;2392;52.578;13.426;2022-10-22T06:50:33;16.67;;;14.77;;
4756;SDS011;2392;52.578;13.426;2022-10-22T06:53:00;19.03;;;15.00;;
4756;SDS011;2392;52.578;13.426;2022-10-22T06:55:27;23.83;;;14.17;;
4756;SDS011;2392;52.578;13.426;2022-10-22T06:57:54;15.40;;;13.67;;
4756;SDS011;2392;52.578;13.426;2022-10-22T07:00:22;17.37;;;13.77;;
4756;SDS011;2392;52.578;13.426;2022-10-22T07:02:49;18.80;;;13.90;;
4756;SDS011;2392;52.578;13.426;2022-10-22T07:05:18;17.10;;;12.97;;
4756;SDS011;2392;52.578;13.426;2022-10-22T07:07:45;16.53;;;13.40;;
4756;SDS011;2392;52.578;13.426;2022-10-22T07:10:12;18.67;;;14.83;;
4756;SDS011;2392;52.578;13.426;2022-10-22T07:12:39;27.90;;;14.67;;
4756;SDS011;2392;52.578;13.426;2022-10-22T07:15:06;15.63;;;13.10;;
4756;SDS011;2392;52.578;13.426;2022-10-22T07:17:34;18.73;;;14.17;;
4756;SDS011;2392;52.578;13.426;2022-10-22T07:20:01;19.60;;;15.10;;
4756;SDS011;2392;52.578;13.426;2022-10-22T07:22:29;24.13;;;14.47;;
4756;SDS011;2392;52.578;13.426;2022-10-22T07:24:57;21.90;;;16.17;;
4756;SDS011;2392;52.578;13.426;2022-10-22T07:27:23;20.20;;;15.17;;
4756;SDS011;2392;52.578;13.426;2022-10-22T07:29:50;20.37;;;14.03;;
4756;SDS011;2392;52.578;13.426;2022-10-22T07:32:17;18.83;;;14.30;;
4756;SDS011;2392;52.578;13.426;2022-10-22T07:34:45;18.30;;;15.70;;
4756;SDS011;2392;52.578;13.426;2022-10-22T07:37:12;21.63;;;15.00;;
4756;SDS011;2392;52.578;13.426;2022-10-22T07:39:39;19.07;;;15.33;;
4756;SDS011;2392;52.578;13.426;2022-10-22T07:42:06;21.53;;;14.43;;
4756;SDS011;2392;52.578;13.426;2022-10-22T07:44:33;20.80;;;14.97;;
4756;SDS011;2392;52.578;13.426;2022-10-22T07:46:59;15.87;;;14.17;;
4756;SDS011;2392;52.578;13.426;2022-10-22T07:49:26;16.27;;;13.60;;
4756;SDS011;2392;52.578;13.426;2022-10-22T07:51:54;15.53;;;13.50;;
4756;SDS011;2392;52.578;13.426;2022-10-22T07:54:21;16.70;;;12.70;;
4756;SDS011;2392;52.578;13.426;2022-10-22T07:56:48;16.23;;;13.83;;
4756;SDS011;2392;52.578;13.426;2022-10-22T07:59:15;16.80;;;14.00;;
4756;SDS011;2392;52.578;13.426;2022-10-22T08:01:42;19.57;;;14.83;;
4756;SDS011;2392;52.578;13.426;2022-10-22T08:04:11;21.90;;;14.07;;
4756;SDS011;2392;52.578;13.426;2022-10-22T08:06:38;19.50;;;14.50;;
4756;SDS011;2392;52.578;13.426;2022-10-22T08:09:06;16.30;;;14.47;;
4756;SDS011;2392;52.578;13.426;2022-10-22T08:11:33;15.97;;;14.30;;
4756;SDS011;2392;52.578;13.426;2022-10-22T08:14:00;18.17;;;15.70;;
4756;SDS011;2392;52.578;13.426;2022-10-22T08:16:26;16.10;;;13.27;;
4756;SDS011;2392;52.578;13.426;2022-10-22T08:18:54;16.70;;;14.90;;
4756;SDS011;2392;52.578;13.426;2022-10-22T08:21:21;20.23;;;15.60;;
4756;SDS011;2392;52.578;13.426;2022-10-22T08:23:47;17.50;;;14.00;;
4756;SDS011;2392;52.578;13.426;2022-10-22T08:26:16;19.50;;;16.47;;
4756;SDS011;2392;52.578;13.426;2022-10-22T08:28:43;26.20;;;15.37;;
4756;SDS011;2392;52.578;13.426;2022-10-22T08:31:09;21.33;;;14.57;;
4756;SDS011;2392;52.578;13.426;2022-10-22T08:33:37;20.63;;;15.00;;
4756;SDS011;2392;52.578;13.426;2022-10-22T08:36:04;22.70;;;15.23;;
4756;SDS011;2392;52.578;13.426;2022-10-22T08:38:32;17.30;;;12.93;;
4756;SDS011;2392;52.578;13.426;2022-10-22T08:41:02;15.87;;;12.57;;
4756;SDS011;2392;52.578;13.426;2022-10-22T08:43:43;17.80;;;14.27;;
4756;SDS011;2392;52.578;13.426;2022-10-22T08:46:25;17.57;;;14.20;;
4756;SDS011;2392;52.578;13.426;2022-10-22T08:49:06;18.90;;;14.23;;
4756;SDS011;2392;52.578;13.426;2022-10-22T08:51:37;17.00;;;14.50;;
4756;SDS011;2392;52.578;13.426;2022-10-22T08:57:09;15.10;;;12.53;;
4756;SDS011;2392;52.578;13.426;2022-10-22T08:59:52;14.03;;;11.90;;
4756;SDS011;2392;52.578;13.426;2022-10-22T09:02:37;16.87;;;13.80;;
4756;SDS011;2392;52.578;13.426;2022-10-22T09:05:21;15.67;;;12.87;;
4756;SDS011;2392;52.578;13.426;2022-10-22T09:07:58;13.70;;;11.77;;
4756;SDS011;2392;52.578;13.426;2022-10-22T09:10:25;26.00;;;13.07;;
4756;SDS011;2392;52.578;13.426;2022-10-22T09:12:54;12.43;;;11.10;;
4756;SDS011;2392;52.578;13.426;2022-10-22T09:15:22;14.47;;;12.37;;
4756;SDS011;2392;52.578;13.426;2022-10-22T09:17:57;13.60;;;11.70;;
4756;SDS011;2392;52.578;13.426;2022-10-22T09:20:33;14.40;;;12.70;;
4756;SDS011;2392;52.578;13.426;2022-10-22T09:23:13;17.60;;;12.90;;
4756;SDS011;2392;52.578;13.426;2022-10-22T09:25:52;14.80;;;13.30;;
4756;SDS011;2392;52.578;13.426;2022-10-22T09:28:19;15.93;;;13.00;;
4756;SDS011;2392;52.578;13.426;2022-10-22T09:30:47;15.93;;;12.80;;
4756;SDS011;2392;52.578;13.426;2022-10-22T09:33:15;15.47;;;12.90;;
4756;SDS011;2392;52.578;13.426;2022-10-22T09:35:44;14.03;;;12.27;;
4756;SDS011;2392;52.578;13.426;2022-10-22T09:38:13;15.03;;;13.07;;
4756;SDS011;2392;52.578;13.426;2022-10-22T09:40:42;16.70;;;14.83;;
4756;SDS011;2392;52.578;13.426;2022-10-22T09:43:11;13.77;;;12.27;;
4756;SDS011;2392;52.578;13.426;2022-10-22T09:45:39;15.30;;;12.00;;
4756;SDS011;2392;52.578;13.426;2022-10-22T09:48:11;14.00;;;11.63;;
4756;SDS011;2392;52.578;13.426;2022-10-22T09:50:46;16.37;;;13.00;;
4756;SDS011;2392;52.578;13.426;2022-10-22T09:53:17;13.50;;;12.10;;
4756;SDS011;2392;52.578;13.426;2022-10-22T09:55:48;15.67;;;11.97;;
4756;SDS011;2392;52.578;13.426;2022-10-22T09:58:17;19.23;;;11.87;;
4756;SDS011;2392;52.578;13.426;2022-10-22T10:00:45;17.73;;;12.10;;
4756;SDS011;2392;52.578;13.426;2022-10-22T10:03:18;14.23;;;11.83;;
4756;SDS011;2392;52.578;13.426;2022-10-22T10:05:48;14.10;;;11.20;;
4756;SDS011;2392;52.578;13.426;2022-10-22T10:08:17;14.23;;;12.30;;
4756;SDS011;2392;52.578;13.426;2022-10-22T10:10:46;26.30;;;12.40;;
4756;SDS011;2392;52.578;13.426;2022-10-22T10:13:22;15.47;;;12.17;;
4756;SDS011;2392;52.578;13.426;2022-10-22T10:16:05;15.43;;;12.10;;
4756;SDS011;2392;52.578;13.426;2022-10-22T10:18:42;15.43;;;12.30;;
4756;SDS011;2392;52.578;13.426;2022-10-22T10:21:17;17.53;;;13.27;;
4756;SDS011;2392;52.578;13.426;2022-10-22T10:23:51;18.30;;;12.97;;
4756;SDS011;2392;52.578;13.426;2022-10-22T10:26:24;17.30;;;13.67;;
4756;SDS011;2392;52.578;13.426;2022-10-22T10:29:02;15.10;;;12.60;;
4756;SDS011;2392;52.578;13.426;2022-10-22T10:31:42;16.63;;;12.40;;
4756;SDS011;2392;52.578;13.426;2022-10-22T10:34:21;15.83;;;13.57;;
4756;SDS011;2392;52.578;13.426;2022-10-22T10:37:03;21.47;;;14.40;;
4756;SDS011;2392;52.578;13.426;2022-10-22T10:39:39;17.17;;;12.37;;
4756;SDS011;2392;52.578;13.426;2022-10-22T10:42:19;17.17;;;14.30;;
4756;SDS011;2392;52.578;13.426;2022-10-22T10:44:55;15.03;;;13.27;;
4756;SDS011;2392;52.578;13.426;2022-10-22T10:47:47;18.10;;;14.73;;
4756;SDS011;2392;52.578;13.426;2022-10-22T10:50:25;15.67;;;13.47;;
4756;SDS011;2392;52.578;13.426;2022-10-22T10:52:59;18.57;;;15.43;;
4756;SDS011;2392;52.578;13.426;2022-10-22T10:55:37;15.57;;;13.93;;
4756;SDS011;2392;52.578;13.426;2022-10-22T10:58:13;17.67;;;13.93;;
4756;SDS011;2392;52.578;13.426;2022-10-22T11:00:52;16.10;;;13.00;;
4756;SDS011;2392;52.578;13.426;2022-10-22T11:06:23;17.50;;;13.20;;
4756;SDS011;2392;52.578;13.426;2022-10-22T11:08:53;17.40;;;13.83;;
4756;SDS011;2392;52.578;13.426;2022-10-22T11:11:24;16.00;;;14.17;;
4756;SDS011;2392;52.578;13.426;2022-10-22T11:13:58;16.40;;;13.97;;
4756;SDS011;2392;52.578;13.426;2022-10-22T11:16:31;20.10;;;13.63;;
4756;SDS011;2392;52.578;13.426;2022-10-22T11:19:03;15.37;;;12.97;;
4756;SDS011;2392;52.578;13.426;2022-10-22T11:21:37;17.67;;;13.97;;
4756;SDS011;2392;52.578;13.426;2022-10-22T11:24:11;16.93;;;11.87;;
4756;SDS011;2392;52.578;13.426;2022-10-22T11:26:45;16.93;;;13.20;;
4756;SDS011;2392;52.578;13.426;2022-10-22T11:29:18;19.23;;;13.77;;
4756;SDS011;2392;52.578;13.426;2022-10-22T11:31:48;15.47;;;13.83;;
4756;SDS011;2392;52.578;13.426;2022-10-22T11:34:20;15.47;;;12.53;;
4756;SDS011;2392;52.578;13.426;2022-10-22T11:36:52;18.90;;;13.10;;
4756;SDS011;2392;52.578;13.426;2022-10-22T11:39:30;15.87;;;12.80;;
4756;SDS011;2392;52.578;13.426;2022-10-22T11:42:01;21.30;;;14.27;;
4756;SDS011;2392;52.578;13.426;2022-10-22T11:44:30;15.10;;;13.10;;
4756;SDS011;2392;52.578;13.426;2022-10-22T11:47:14;17.20;;;13.80;;
4756;SDS011;2392;52.578;13.426;2022-10-22T11:49:46;16.30;;;12.80;;
4756;SDS011;2392;52.578;13.426;2022-10-22T11:52:25;14.77;;;12.10;;
4756;SDS011;2392;52.578;13.426;2022-10-22T11:55:16;16.60;;;11.23;;
4756;SDS011;2392;52.578;13.426;2022-10-22T11:57:57;16.67;;;12.63;;
4756;SDS011;2392;52.578;13.426;2022-10-22T12:00:33;15.00;;;11.37;;
4756;SDS011;2392;52.578;13.426;2022-10-22T12:03:14;18.97;;;12.27;;
4756;SDS011;2392;52.578;13.426;2022-10-22T12:05:42;15.60;;;12.07;;
4756;SDS011;2392;52.578;13.426;2022-10-22T12:08:21;14.90;;;11.10;;
4756;SDS011;2392;52.578;13.426;2022-10-22T12:10:55;11.90;;;9.23;;
4756;SDS011;2392;52.578;13.426;2022-10-22T12:13:25;11.60;;;9.47;;
4756;SDS011;2392;52.578;13.426;2022-10-22T12:15:56;19.93;;;10.37;;
4756;SDS011;2392;52.578;13.426;2022-10-22T12:18:25;11.47;;;9.70;;
4756;SDS011;2392;52.578;13.426;2022-10-22T12:21:04;11.47;;;9.10;;
4756;SDS011;2392;52.578;13.426;2022-10-22T12:23:33;10.17;;;7.37;;
4756;SDS011;2392;52.578;13.426;2022-10-22T12:26:02;13.80;;;7.80;;
4756;SDS011;2392;52.578;13.426;2022-10-22T12:28:38;10.60;;;8.07;;
4756;SDS011;2392;52.578;13.426;2022-10-22T12:31:05;12.03;;;8.10;;
4756;SDS011;2392;52.578;13.426;2022-10-22T12:33:40;10.70;;;7.30;;
4756;SDS011;2392;52.578;13.426;2022-10-22T12:36:12;8.63;;;7.20;;
4756;SDS011;2392;52.578;13.426;2022-10-22T12:38:42;8.60;;;7.20;;
4756;SDS011;2392;52.578;13.426;2022-10-22T12:41:12;10.07;;;7.73;;
4756;SDS011;2392;52.578;13.426;2022-10-22T12:43:39;10.30;;;7.10;;
4756;SDS011;2392;52.578;13.426;2022-10-22T12:46:08;12.17;;;7.10;;
4756;SDS011;2392;52.578;13.426;2022-10-22T12:48:39;8.33;;;7.53;;
4756;SDS011;2392;52.578;13.426;2022-10-22T12:51:08;8.37;;;6.27;;
4756;SDS011;2392;52.578;13.426;2022-10-22T12:53:43;7.97;;;6.20;;
4756;SDS011;2392;52.578;13.426;2022-10-22T12:56:13;8.17;;;6.63;;
4756;SDS011;2392;52.578;13.426;2022-10-22T12:58:46;8.87;;;6.00;;
4756;SDS011;2392;52.578;13.426;2022-10-22T13:01:16;10.50;;;4.57;;
4756;SDS011;2392;52.578;13.426;2022-10-22T13:03:45;6.40;;;5.03;;
4756;SDS011;2392;52.578;13.426;2022-10-22T13:06:21;5.03;;;4.50;;
4756;SDS011;2392;52.578;13.426;2022-10-22T13:09:02;5.83;;;3.77;;
4756;SDS011;2392;52.578;13.426;2022-10-22T13:11:38;5.90;;;3.70;;
4756;SDS011;2392;52.578;13.426;2022-10-22T13:14:14;10.53;;;5.00;;
4756;SDS011;2392;52.578;13.426;2022-10-22T13:19:35;5.17;;;3.97;;
4756;SDS011;2392;52.578;13.426;2022-10-22T13:22:24;5.00;;;3.20;;
4756;SDS011;2392;52.578;13.426;2022-10-22T13:25:03;5.77;;;3.50;;
4756;SDS011;2392;52.578;13.426;2022-10-22T13:27:45;7.40;;;3.00;;
4756;SDS011;2392;52.578;13.426;2022-10-22T13:30:16;4.23;;;3.70;;
4756;SDS011;2392;52.578;13.426;2022-10-22T13:35:44;5.43;;;3.43;;
4756;SDS011;2392;52.578;13.426;2022-10-22T13:38:11;4.33;;;3.40;;
4756;SDS011;2392;52.578;13.426;2022-10-22T13:40:44;3.97;;;3.10;;
4756;SDS011;2392;52.578;13.426;2022-10-22T13:43:11;8.67;;;3.30;;
4756;SDS011;2392;52.578;13.426;2022-10-22T13:45:38;6.03;;;2.80;;
4756;SDS011;2392;52.578;13.426;2022-10-22T13:48:07;6.90;;;3.67;;
4756;SDS011;2392;52.578;13.426;2022-10-22T13:50:38;4.00;;;3.10;;
4756;SDS011;2392;52.578;13.426;2022-10-22T13:53:08;5.90;;;3.30;;
4756;SDS011;2392;52.578;13.426;2022-10-22T13:55:42;7.70;;;3.30;;
4756;SDS011;2392;52.578;13.426;2022-10-22T13:58:11;8.33;;;3.10;;
4756;SDS011;2392;52.578;13.426;2022-10-22T14:00:42;5.63;;;3.27;;
4756;SDS011;2392;52.578;13.426;2022-10-22T14:03:11;4.90;;;3.37;;
4756;SDS011;2392;52.578;13.426;2022-10-22T14:05:41;4.93;;;3.60;;
4756;SDS011;2392;52.578;13.426;2022-10-22T14:08:08;5.80;;;3.40;;
4756;SDS011;2392;52.578;13.426;2022-10-22T14:10:37;7.87;;;3.00;;
4756;SDS011;2392;52.578;13.426;2022-10-22T14:13:04;5.37;;;3.13;;
4756;SDS011;2392;52.578;13.426;2022-10-22T14:15:33;4.13;;;2.87;;
4756;SDS011;2392;52.578;13.426;2022-10-22T14:18:00;4.93;;;3.70;;
4756;SDS011;2392;52.578;13.426;2022-10-22T14:20:29;8.40;;;4.17;;
4756;SDS011;2392;52.578;13.426;2022-10-22T14:22:59;11.43;;;3.30;;
4756;SDS011;2392;52.578;13.426;2022-10-22T14:25:32;9.03;;;3.70;;
4756;SDS011;2392;52.578;13.426;2022-10-22T14:27:59;9.20;;;3.30;;
4756;SDS011;2392;52.578;13.426;2022-10-22T14:30:26;9.00;;;4.10;;
4756;SDS011;2392;52.578;13.426;2022-10-22T14:32:55;6.47;;;3.53;;
4756;SDS011;2392;52.578;13.426;2022-10-22T14:35:23;7.20;;;3.73;;
4756;SDS011;2392;52.578;13.426;2022-10-22T14:37:50;5.30;;;3.13;;
4756;SDS011;2392;52.578;13.426;2022-10-22T14:40:18;8.90;;;3.00;;
4756;SDS011;2392;52.578;13.426;2022-10-22T14:42:46;9.80;;;3.80;;
4756;SDS011;2392;52.578;13.426;2022-10-22T14:45:15;6.03;;;3.63;;
4756;SDS011;2392;52.578;13.426;2022-10-22T14:47:43;5.83;;;4.03;;
4756;SDS011;2392;52.578;13.426;2022-10-22T14:50:11;4.30;;;2.63;;
4756;SDS011;2392;52.578;13.426;2022-10-22T14:52:38;10.23;;;3.60;;
4756;SDS011;2392;52.578;13.426;2022-10-22T14:55:07;6.17;;;2.90;;
4756;SDS011;2392;52.578;13.426;2022-10-22T14:57:34;3.40;;;2.77;;
4756;SDS011;2392;52.578;13.426;2022-10-22T15:00:03;7.60;;;2.90;;
4756;SDS011;2392;52.578;13.426;2022-10-22T15:02:30;5.93;;;3.37;;
4756;SDS011;2392;52.578;13.426;2022-10-22T15:04:57;4.50;;;2.90;;
4756;SDS011;2392;52.578;13.426;2022-10-22T15:07:25;4.23;;;2.80;;